sensor_id;sensor_type;location;lat;lon;timestamp;pressure;altitude;pressure_sealevel;temperature
70533;BMP180;58088;51.186;17.130;2023-06-14T00:01:54;100336.80;;;13.50
70533;BMP180;58088;51.186;17.130;2023-06-14T00:04:21;100341.40;;;13.50
70533;BMP180;58088;51.186;17.130;2023-06-14T00:06:47;100338.80;;;13.50
70533;BMP180;58088;51.186;17.130;2023-06-14T00:09:16;100334.60;;;13.46
70533;BMP180;58088;51.186;17.130;2023-06-14T00:11:44;100339.40;;;13.40
70533;BMP180;58088;51.186;17.130;2023-06-14T00:14:10;100341.60;;;13.40
70533;BMP180;58088;51.186;17.130;2023-06-14T00:16:37;100342.20;;;13.36
70533;BMP180;58088;51.186;17.130;2023-06-14T00:19:04;100343.60;;;13.30
70533;BMP180;58088;51.186;17.130;2023-06-14T00:21:31;100344.20;;;13.30
70533;BMP180;58088;51.186;17.130;2023-06-14T00:23:58;100345.00;;;13.30
70533;BMP180;58088;51.186;17.130;2023-06-14T00:26:25;100338.00;;;13.20
70533;BMP180;58088;51.186;17.130;2023-06-14T00:28:53;100342.40;;;13.20
70533;BMP180;58088;51.186;17.130;2023-06-14T00:31:20;100348.20;;;13.14
70533;BMP180;58088;51.186;17.130;2023-06-14T00:33:46;100352.80;;;13.10
70533;BMP180;58088;51.186;17.130;2023-06-14T00:36:12;100347.20;;;13.10
70533;BMP180;58088;51.186;17.130;2023-06-14T00:38:39;100351.80;;;13.00
70533;BMP180;58088;51.186;17.130;2023-06-14T00:41:05;100350.20;;;13.00
70533;BMP180;58088;51.186;17.130;2023-06-14T00:43:32;100349.60;;;13.00
70533;BMP180;58088;51.186;17.130;2023-06-14T00:46:01;100354.20;;;13.00
70533;BMP180;58088;51.186;17.130;2023-06-14T00:48:28;100349.20;;;13.00
70533;BMP180;58088;51.186;17.130;2023-06-14T00:50:54;100346.00;;;13.00
70533;BMP180;58088;51.186;17.130;2023-06-14T00:53:21;100349.40;;;13.00
70533;BMP180;58088;51.186;17.130;2023-06-14T00:55:49;100350.40;;;13.00
70533;BMP180;58088;51.186;17.130;2023-06-14T00:58:17;100352.60;;;13.00
70533;BMP180;58088;51.186;17.130;2023-06-14T01:00:44;100352.20;;;13.00
70533;BMP180;58088;51.186;17.130;2023-06-14T01:03:11;100360.20;;;13.00
70533;BMP180;58088;51.186;17.130;2023-06-14T01:05:39;100352.60;;;13.00
70533;BMP180;58088;51.186;17.130;2023-06-14T01:08:39;100354.40;;;13.00
70533;BMP180;58088;51.186;17.130;2023-06-14T01:11:34;100355.20;;;12.90
70533;BMP180;58088;51.186;17.130;2023-06-14T01:14:03;100351.80;;;12.80
70533;BMP180;58088;51.186;17.130;2023-06-14T01:16:31;100351.80;;;12.80
70533;BMP180;58088;51.186;17.130;2023-06-14T01:18:59;100348.40;;;12.80
70533;BMP180;58088;51.186;17.130;2023-06-14T01:21:26;100347.40;;;12.80
70533;BMP180;58088;51.186;17.130;2023-06-14T01:23:54;100343.40;;;12.72
70533;BMP180;58088;51.186;17.130;2023-06-14T01:26:23;100344.80;;;12.70
70533;BMP180;58088;51.186;17.130;2023-06-14T01:28:52;100344.80;;;12.70
70533;BMP180;58088;51.186;17.130;2023-06-14T01:31:25;100346.20;;;12.70
70533;BMP180;58088;51.186;17.130;2023-06-14T01:33:53;100345.00;;;12.70
70533;BMP180;58088;51.186;17.130;2023-06-14T01:36:20;100338.80;;;12.68
70533;BMP180;58088;51.186;17.130;2023-06-14T01:38:50;100340.80;;;12.60
70533;BMP180;58088;51.186;17.130;2023-06-14T01:41:18;100334.40;;;12.60
70533;BMP180;58088;51.186;17.130;2023-06-14T01:43:48;100336.20;;;12.60
70533;BMP180;58088;51.186;17.130;2023-06-14T01:46:16;100337.20;;;12.60
70533;BMP180;58088;51.186;17.130;2023-06-14T01:48:43;100338.20;;;12.58
70533;BMP180;58088;51.186;17.130;2023-06-14T01:51:09;100340.60;;;12.50
70533;BMP180;58088;51.186;17.130;2023-06-14T01:53:35;100341.60;;;12.50
70533;BMP180;58088;51.186;17.130;2023-06-14T01:56:02;100339.00;;;12.40
70533;BMP180;58088;51.186;17.130;2023-06-14T01:58:31;100336.00;;;12.40
70533;BMP180;58088;51.186;17.130;2023-06-14T02:00:57;100337.40;;;12.40
70533;BMP180;58088;51.186;17.130;2023-06-14T02:03:42;100345.40;;;12.30
70533;BMP180;58088;51.186;17.130;2023-06-14T02:06:10;100337.80;;;12.20
70533;BMP180;58088;51.186;17.130;2023-06-14T02:08:39;100331.00;;;12.30
70533;BMP180;58088;51.186;17.130;2023-06-14T02:11:05;100338.00;;;12.30
70533;BMP180;58088;51.186;17.130;2023-06-14T02:13:32;100339.40;;;12.20
70533;BMP180;58088;51.186;17.130;2023-06-14T02:15:58;100335.80;;;12.20
70533;BMP180;58088;51.186;17.130;2023-06-14T02:18:25;100331.40;;;12.20
70533;BMP180;58088;51.186;17.130;2023-06-14T02:20:52;100331.80;;;12.20
70533;BMP180;58088;51.186;17.130;2023-06-14T02:23:18;100329.40;;;12.30
70533;BMP180;58088;51.186;17.130;2023-06-14T02:25:44;100330.40;;;12.30
70533;BMP180;58088;51.186;17.130;2023-06-14T02:28:12;100337.00;;;12.30
70533;BMP180;58088;51.186;17.130;2023-06-14T02:30:38;100340.60;;;12.30
70533;BMP180;58088;51.186;17.130;2023-06-14T02:33:05;100336.40;;;12.30
70533;BMP180;58088;51.186;17.130;2023-06-14T02:35:32;100337.40;;;12.24
70533;BMP180;58088;51.186;17.130;2023-06-14T02:37:58;100335.00;;;12.22
70533;BMP180;58088;51.186;17.130;2023-06-14T02:40:24;100332.80;;;12.20
70533;BMP180;58088;51.186;17.130;2023-06-14T02:42:50;100333.40;;;12.20
70533;BMP180;58088;51.186;17.130;2023-06-14T02:45:17;100335.20;;;12.20
70533;BMP180;58088;51.186;17.130;2023-06-14T02:47:44;100340.00;;;12.10
70533;BMP180;58088;51.186;17.130;2023-06-14T02:50:12;100341.20;;;12.00
70533;BMP180;58088;51.186;17.130;2023-06-14T02:52:38;100339.20;;;12.00
70533;BMP180;58088;51.186;17.130;2023-06-14T02:55:08;100344.20;;;12.00
70533;BMP180;58088;51.186;17.130;2023-06-14T02:57:36;100330.40;;;12.04
70533;BMP180;58088;51.186;17.130;2023-06-14T03:00:03;100340.20;;;12.10
70533;BMP180;58088;51.186;17.130;2023-06-14T03:02:30;100343.20;;;12.10
70533;BMP180;58088;51.186;17.130;2023-06-14T03:04:56;100344.00;;;12.10
70533;BMP180;58088;51.186;17.130;2023-06-14T03:07:28;100343.40;;;12.12
70533;BMP180;58088;51.186;17.130;2023-06-14T03:09:56;100344.40;;;12.20
70533;BMP180;58088;51.186;17.130;2023-06-14T03:12:22;100339.40;;;12.20
70533;BMP180;58088;51.186;17.130;2023-06-14T03:14:50;100352.00;;;12.20
70533;BMP180;58088;51.186;17.130;2023-06-14T03:17:19;100344.00;;;12.20
70533;BMP180;58088;51.186;17.130;2023-06-14T03:19:45;100343.00;;;12.30
70533;BMP180;58088;51.186;17.130;2023-06-14T03:22:12;100338.40;;;12.38
70533;BMP180;58088;51.186;17.130;2023-06-14T03:24:39;100331.60;;;12.44
70533;BMP180;58088;51.186;17.130;2023-06-14T03:27:10;100337.00;;;12.52
70533;BMP180;58088;51.186;17.130;2023-06-14T03:29:37;100334.20;;;12.60
70533;BMP180;58088;51.186;17.130;2023-06-14T03:32:04;100336.00;;;12.78
70533;BMP180;58088;51.186;17.130;2023-06-14T03:34:36;100339.00;;;12.90
70533;BMP180;58088;51.186;17.130;2023-06-14T03:37:05;100338.00;;;13.00
70533;BMP180;58088;51.186;17.130;2023-06-14T03:39:31;100347.60;;;13.10
70533;BMP180;58088;51.186;17.130;2023-06-14T03:41:57;100335.00;;;13.20
70533;BMP180;58088;51.186;17.130;2023-06-14T03:44:26;100336.80;;;13.38
70533;BMP180;58088;51.186;17.130;2023-06-14T03:46:53;100337.60;;;13.50
70533;BMP180;58088;51.186;17.130;2023-06-14T03:49:19;100331.20;;;13.60
70533;BMP180;58088;51.186;17.130;2023-06-14T03:51:45;100331.20;;;13.70
70533;BMP180;58088;51.186;17.130;2023-06-14T03:54:18;100331.40;;;13.76
70533;BMP180;58088;51.186;17.130;2023-06-14T03:56:44;100332.20;;;13.80
70533;BMP180;58088;51.186;17.130;2023-06-14T03:59:12;100331.60;;;13.80
70533;BMP180;58088;51.186;17.130;2023-06-14T04:01:38;100343.60;;;13.90
70533;BMP180;58088;51.186;17.130;2023-06-14T04:04:13;100347.60;;;14.00
70533;BMP180;58088;51.186;17.130;2023-06-14T04:06:42;100341.00;;;14.10
70533;BMP180;58088;51.186;17.130;2023-06-14T04:09:10;100347.00;;;14.20
70533;BMP180;58088;51.186;17.130;2023-06-14T04:11:36;100341.20;;;14.30
70533;BMP180;58088;51.186;17.130;2023-06-14T04:14:03;100358.40;;;14.46
70533;BMP180;58088;51.186;17.130;2023-06-14T04:16:30;100355.40;;;14.62
70533;BMP180;58088;51.186;17.130;2023-06-14T04:18:56;100351.40;;;14.90
70533;BMP180;58088;51.186;17.130;2023-06-14T04:21:24;100348.20;;;15.20
70533;BMP180;58088;51.186;17.130;2023-06-14T04:23:53;100353.20;;;15.72
70533;BMP180;58088;51.186;17.130;2023-06-14T04:26:23;100353.40;;;16.30
70533;BMP180;58088;51.186;17.130;2023-06-14T04:28:56;100359.20;;;16.60
70533;BMP180;58088;51.186;17.130;2023-06-14T04:31:29;100357.80;;;16.74
70533;BMP180;58088;51.186;17.130;2023-06-14T04:33:56;100357.80;;;16.98
70533;BMP180;58088;51.186;17.130;2023-06-14T04:36:22;100359.00;;;17.38
70533;BMP180;58088;51.186;17.130;2023-06-14T04:38:49;100354.00;;;17.70
70533;BMP180;58088;51.186;17.130;2023-06-14T04:41:21;100356.20;;;18.34
70533;BMP180;58088;51.186;17.130;2023-06-14T04:43:49;100364.00;;;19.00
70533;BMP180;58088;51.186;17.130;2023-06-14T04:46:16;100367.40;;;19.36
70533;BMP180;58088;51.186;17.130;2023-06-14T04:48:43;100371.40;;;19.70
70533;BMP180;58088;51.186;17.130;2023-06-14T04:51:10;100372.80;;;19.78
70533;BMP180;58088;51.186;17.130;2023-06-14T04:53:37;100378.00;;;19.80
70533;BMP180;58088;51.186;17.130;2023-06-14T04:56:04;100379.00;;;19.80
70533;BMP180;58088;51.186;17.130;2023-06-14T04:58:32;100380.00;;;19.68
70533;BMP180;58088;51.186;17.130;2023-06-14T05:00:59;100380.00;;;19.40
70533;BMP180;58088;51.186;17.130;2023-06-14T05:03:26;100382.20;;;19.30
70533;BMP180;58088;51.186;17.130;2023-06-14T05:05:53;100382.40;;;19.30
70533;BMP180;58088;51.186;17.130;2023-06-14T05:08:21;100385.40;;;19.40
70533;BMP180;58088;51.186;17.130;2023-06-14T05:10:51;100386.40;;;19.50
70533;BMP180;58088;51.186;17.130;2023-06-14T05:13:18;100381.00;;;19.50
70533;BMP180;58088;51.186;17.130;2023-06-14T05:15:45;100375.60;;;19.40
70533;BMP180;58088;51.186;17.130;2023-06-14T05:18:11;100375.80;;;19.40
70533;BMP180;58088;51.186;17.130;2023-06-14T05:20:39;100383.60;;;19.40
70533;BMP180;58088;51.186;17.130;2023-06-14T05:23:05;100381.00;;;19.30
70533;BMP180;58088;51.186;17.130;2023-06-14T05:25:32;100386.20;;;19.30
70533;BMP180;58088;51.186;17.130;2023-06-14T05:27:58;100377.80;;;19.28
70533;BMP180;58088;51.186;17.130;2023-06-14T05:30:24;100377.00;;;19.20
70533;BMP180;58088;51.186;17.130;2023-06-14T05:32:50;100364.60;;;19.14
70533;BMP180;58088;51.186;17.130;2023-06-14T05:35:18;100367.40;;;19.10
70533;BMP180;58088;51.186;17.130;2023-06-14T05:37:44;100368.00;;;19.04
70533;BMP180;58088;51.186;17.130;2023-06-14T05:40:11;100373.80;;;19.06
70533;BMP180;58088;51.186;17.130;2023-06-14T05:42:37;100376.20;;;19.00
70533;BMP180;58088;51.186;17.130;2023-06-14T05:45:04;100379.80;;;19.00
70533;BMP180;58088;51.186;17.130;2023-06-14T05:47:31;100381.00;;;19.00
70533;BMP180;58088;51.186;17.130;2023-06-14T05:49:57;100381.80;;;18.90
70533;BMP180;58088;51.186;17.130;2023-06-14T05:52:23;100381.20;;;18.82
70533;BMP180;58088;51.186;17.130;2023-06-14T05:54:51;100397.80;;;18.72
70533;BMP180;58088;51.186;17.130;2023-06-14T05:57:17;100393.80;;;18.70
70533;BMP180;58088;51.186;17.130;2023-06-14T05:59:43;100390.00;;;18.70
70533;BMP180;58088;51.186;17.130;2023-06-14T06:02:09;100395.40;;;18.76
70533;BMP180;58088;51.186;17.130;2023-06-14T06:04:35;100399.20;;;18.80
70533;BMP180;58088;51.186;17.130;2023-06-14T06:07:01;100391.20;;;18.66
70533;BMP180;58088;51.186;17.130;2023-06-14T06:09:28;100395.80;;;18.72
70533;BMP180;58088;51.186;17.130;2023-06-14T06:11:54;100399.20;;;18.90
70533;BMP180;58088;51.186;17.130;2023-06-14T06:14:20;100401.40;;;18.90
70533;BMP180;58088;51.186;17.130;2023-06-14T06:16:46;100391.80;;;19.04
70533;BMP180;58088;51.186;17.130;2023-06-14T06:19:13;100397.40;;;19.18
70533;BMP180;58088;51.186;17.130;2023-06-14T06:21:39;100406.80;;;19.20
70533;BMP180;58088;51.186;17.130;2023-06-14T06:24:05;100405.80;;;19.30
70533;BMP180;58088;51.186;17.130;2023-06-14T06:26:32;100405.00;;;19.32
70533;BMP180;58088;51.186;17.130;2023-06-14T06:28:58;100414.80;;;19.30
70533;BMP180;58088;51.186;17.130;2023-06-14T06:31:25;100417.60;;;19.30
70533;BMP180;58088;51.186;17.130;2023-06-14T06:33:54;100416.20;;;19.20
70533;BMP180;58088;51.186;17.130;2023-06-14T06:36:20;100421.60;;;19.20
70533;BMP180;58088;51.186;17.130;2023-06-14T06:38:48;100418.20;;;19.14
70533;BMP180;58088;51.186;17.130;2023-06-14T06:41:14;100420.00;;;19.10
70533;BMP180;58088;51.186;17.130;2023-06-14T06:43:40;100419.00;;;19.10
70533;BMP180;58088;51.186;17.130;2023-06-14T06:46:09;100428.40;;;19.00
70533;BMP180;58088;51.186;17.130;2023-06-14T06:48:35;100426.20;;;19.00
70533;BMP180;58088;51.186;17.130;2023-06-14T06:51:01;100421.00;;;19.00
70533;BMP180;58088;51.186;17.130;2023-06-14T06:53:27;100427.00;;;19.00
70533;BMP180;58088;51.186;17.130;2023-06-14T06:55:54;100430.20;;;18.90
70533;BMP180;58088;51.186;17.130;2023-06-14T06:58:20;100435.40;;;18.80
70533;BMP180;58088;51.186;17.130;2023-06-14T07:00:48;100439.00;;;18.80
70533;BMP180;58088;51.186;17.130;2023-06-14T07:03:14;100443.20;;;18.78
70533;BMP180;58088;51.186;17.130;2023-06-14T07:05:40;100439.80;;;18.90
70533;BMP180;58088;51.186;17.130;2023-06-14T07:08:06;100429.20;;;19.00
70533;BMP180;58088;51.186;17.130;2023-06-14T07:10:32;100421.20;;;19.10
70533;BMP180;58088;51.186;17.130;2023-06-14T07:12:59;100416.80;;;19.20
70533;BMP180;58088;51.186;17.130;2023-06-14T07:15:25;100416.80;;;19.38
70533;BMP180;58088;51.186;17.130;2023-06-14T07:17:51;100418.60;;;19.60
70533;BMP180;58088;51.186;17.130;2023-06-14T07:20:18;100421.80;;;19.80
70533;BMP180;58088;51.186;17.130;2023-06-14T07:22:48;100423.60;;;20.10
70533;BMP180;58088;51.186;17.130;2023-06-14T07:25:14;100425.80;;;20.32
70533;BMP180;58088;51.186;17.130;2023-06-14T07:27:42;100428.80;;;20.86
70533;BMP180;58088;51.186;17.130;2023-06-14T07:30:09;100431.20;;;21.30
70533;BMP180;58088;51.186;17.130;2023-06-14T07:32:36;100436.40;;;21.56
70533;BMP180;58088;51.186;17.130;2023-06-14T07:35:03;100437.40;;;21.60
70533;BMP180;58088;51.186;17.130;2023-06-14T07:37:29;100436.20;;;21.74
70533;BMP180;58088;51.186;17.130;2023-06-14T07:39:55;100437.40;;;21.80
70533;BMP180;58088;51.186;17.130;2023-06-14T07:42:21;100440.20;;;21.80
70533;BMP180;58088;51.186;17.130;2023-06-14T07:44:47;100439.00;;;21.80
70533;BMP180;58088;51.186;17.130;2023-06-14T07:47:13;100441.80;;;21.70
70533;BMP180;58088;51.186;17.130;2023-06-14T07:49:39;100436.00;;;21.70
70533;BMP180;58088;51.186;17.130;2023-06-14T07:52:07;100433.00;;;21.80
70533;BMP180;58088;51.186;17.130;2023-06-14T07:54:33;100436.80;;;22.00
70533;BMP180;58088;51.186;17.130;2023-06-14T07:56:59;100437.40;;;22.00
70533;BMP180;58088;51.186;17.130;2023-06-14T07:59:26;100434.20;;;22.00
70533;BMP180;58088;51.186;17.130;2023-06-14T08:01:53;100440.20;;;22.10
70533;BMP180;58088;51.186;17.130;2023-06-14T08:04:19;100428.80;;;22.26
70533;BMP180;58088;51.186;17.130;2023-06-14T08:06:45;100433.80;;;22.66
70533;BMP180;58088;51.186;17.130;2023-06-14T08:09:12;100435.80;;;22.70
70533;BMP180;58088;51.186;17.130;2023-06-14T08:11:38;100431.00;;;22.70
70533;BMP180;58088;51.186;17.130;2023-06-14T08:14:05;100436.20;;;22.60
70533;BMP180;58088;51.186;17.130;2023-06-14T08:16:31;100438.20;;;22.36
70533;BMP180;58088;51.186;17.130;2023-06-14T08:18:57;100432.20;;;22.20
70533;BMP180;58088;51.186;17.130;2023-06-14T08:21:23;100436.20;;;22.10
70533;BMP180;58088;51.186;17.130;2023-06-14T08:23:49;100430.00;;;22.00
70533;BMP180;58088;51.186;17.130;2023-06-14T08:26:19;100429.20;;;21.90
70533;BMP180;58088;51.186;17.130;2023-06-14T08:28:45;100435.20;;;21.90
70533;BMP180;58088;51.186;17.130;2023-06-14T08:31:11;100435.40;;;22.00
70533;BMP180;58088;51.186;17.130;2023-06-14T08:33:37;100436.20;;;21.90
70533;BMP180;58088;51.186;17.130;2023-06-14T08:36:05;100433.40;;;22.00
70533;BMP180;58088;51.186;17.130;2023-06-14T08:38:31;100433.60;;;22.24
70533;BMP180;58088;51.186;17.130;2023-06-14T08:40:57;100434.40;;;22.50
70533;BMP180;58088;51.186;17.130;2023-06-14T08:43:24;100432.60;;;22.60
70533;BMP180;58088;51.186;17.130;2023-06-14T08:45:58;100433.40;;;22.80
70533;BMP180;58088;51.186;17.130;2023-06-14T08:48:29;100427.60;;;22.90
70533;BMP180;58088;51.186;17.130;2023-06-14T08:51:01;100438.80;;;22.70
70533;BMP180;58088;51.186;17.130;2023-06-14T08:53:31;100432.40;;;22.50
70533;BMP180;58088;51.186;17.130;2023-06-14T08:56:00;100434.20;;;22.46
70533;BMP180;58088;51.186;17.130;2023-06-14T08:58:31;100435.20;;;22.40
70533;BMP180;58088;51.186;17.130;2023-06-14T09:01:01;100439.00;;;22.30
70533;BMP180;58088;51.186;17.130;2023-06-14T09:03:27;100443.20;;;22.20
70533;BMP180;58088;51.186;17.130;2023-06-14T09:05:57;100441.40;;;22.00
70533;BMP180;58088;51.186;17.130;2023-06-14T09:08:26;100442.40;;;21.90
70533;BMP180;58088;51.186;17.130;2023-06-14T09:10:57;100440.80;;;21.80
70533;BMP180;58088;51.186;17.130;2023-06-14T09:13:23;100445.40;;;21.70
70533;BMP180;58088;51.186;17.130;2023-06-14T09:15:50;100447.80;;;21.50
70533;BMP180;58088;51.186;17.130;2023-06-14T09:18:16;100445.40;;;21.40
70533;BMP180;58088;51.186;17.130;2023-06-14T09:20:43;100448.20;;;21.30
70533;BMP180;58088;51.186;17.130;2023-06-14T09:23:09;100452.60;;;21.20
70533;BMP180;58088;51.186;17.130;2023-06-14T09:25:45;100451.60;;;21.10
70533;BMP180;58088;51.186;17.130;2023-06-14T09:28:12;100459.80;;;21.02
70533;BMP180;58088;51.186;17.130;2023-06-14T09:30:38;100453.40;;;20.90
70533;BMP180;58088;51.186;17.130;2023-06-14T09:33:04;100456.40;;;20.90
70533;BMP180;58088;51.186;17.130;2023-06-14T09:35:34;100453.00;;;20.74
70533;BMP180;58088;51.186;17.130;2023-06-14T09:38:01;100449.80;;;20.80
70533;BMP180;58088;51.186;17.130;2023-06-14T09:40:28;100440.40;;;20.80
70533;BMP180;58088;51.186;17.130;2023-06-14T09:42:55;100445.00;;;20.90
70533;BMP180;58088;51.186;17.130;2023-06-14T09:45:26;100437.60;;;21.00
70533;BMP180;58088;51.186;17.130;2023-06-14T09:47:56;100448.80;;;21.20
70533;BMP180;58088;51.186;17.130;2023-06-14T09:50:22;100442.40;;;21.40
70533;BMP180;58088;51.186;17.130;2023-06-14T09:52:52;100437.20;;;21.50
70533;BMP180;58088;51.186;17.130;2023-06-14T09:55:19;100439.20;;;21.60
70533;BMP180;58088;51.186;17.130;2023-06-14T09:57:47;100431.00;;;21.50
70533;BMP180;58088;51.186;17.130;2023-06-14T10:00:15;100435.20;;;21.50
70533;BMP180;58088;51.186;17.130;2023-06-14T10:02:50;100437.20;;;21.60
70533;BMP180;58088;51.186;17.130;2023-06-14T10:05:21;100440.40;;;21.68
70533;BMP180;58088;51.186;17.130;2023-06-14T10:07:48;100431.60;;;21.60
70533;BMP180;58088;51.186;17.130;2023-06-14T10:10:16;100437.60;;;21.62
70533;BMP180;58088;51.186;17.130;2023-06-14T10:12:43;100438.00;;;21.80
70533;BMP180;58088;51.186;17.130;2023-06-14T10:15:31;100441.00;;;21.80
70533;BMP180;58088;51.186;17.130;2023-06-14T10:18:27;100441.20;;;21.90
70533;BMP180;58088;51.186;17.130;2023-06-14T10:21:09;100440.40;;;21.92
70533;BMP180;58088;51.186;17.130;2023-06-14T10:23:43;100440.20;;;22.00
70533;BMP180;58088;51.186;17.130;2023-06-14T10:26:20;100445.20;;;22.10
70533;BMP180;58088;51.186;17.130;2023-06-14T10:29:01;100448.40;;;22.10
70533;BMP180;58088;51.186;17.130;2023-06-14T10:31:49;100439.80;;;22.20
70533;BMP180;58088;51.186;17.130;2023-06-14T10:34:42;100440.40;;;22.36
70533;BMP180;58088;51.186;17.130;2023-06-14T10:37:13;100441.60;;;22.46
70533;BMP180;58088;51.186;17.130;2023-06-14T10:39:45;100436.40;;;22.60
70533;BMP180;58088;51.186;17.130;2023-06-14T10:42:15;100437.20;;;22.80
70533;BMP180;58088;51.186;17.130;2023-06-14T10:44:55;100434.60;;;23.00
70533;BMP180;58088;51.186;17.130;2023-06-14T10:47:31;100435.00;;;23.10
70533;BMP180;58088;51.186;17.130;2023-06-14T10:50:08;100437.60;;;23.20
70533;BMP180;58088;51.186;17.130;2023-06-14T10:52:42;100432.00;;;23.40
70533;BMP180;58088;51.186;17.130;2023-06-14T10:55:17;100433.20;;;23.50
70533;BMP180;58088;51.186;17.130;2023-06-14T10:57:47;100426.00;;;23.60
70533;BMP180;58088;51.186;17.130;2023-06-14T11:00:20;100430.60;;;23.70
70533;BMP180;58088;51.186;17.130;2023-06-14T11:09:02;100427.80;;;23.76
70533;BMP180;58088;51.186;17.130;2023-06-14T11:11:37;100424.60;;;23.70
70533;BMP180;58088;51.186;17.130;2023-06-14T11:14:04;100423.40;;;23.50
70533;BMP180;58088;51.186;17.130;2023-06-14T11:16:30;100417.60;;;23.46
70533;BMP180;58088;51.186;17.130;2023-06-14T11:19:01;100422.40;;;23.40
70533;BMP180;58088;51.186;17.130;2023-06-14T11:21:29;100421.40;;;23.30
70533;BMP180;58088;51.186;17.130;2023-06-14T11:23:57;100417.00;;;23.20
70533;BMP180;58088;51.186;17.130;2023-06-14T11:26:30;100415.60;;;23.20
70533;BMP180;58088;51.186;17.130;2023-06-14T11:29:01;100418.60;;;23.10
70533;BMP180;58088;51.186;17.130;2023-06-14T11:31:28;100413.00;;;22.94
70533;BMP180;58088;51.186;17.130;2023-06-14T11:33:56;100410.80;;;22.90
70533;BMP180;58088;51.186;17.130;2023-06-14T11:36:26;100416.80;;;22.70
70533;BMP180;58088;51.186;17.130;2023-06-14T11:39:03;100417.60;;;22.60
70533;BMP180;58088;51.186;17.130;2023-06-14T11:41:44;100416.20;;;22.60
70533;BMP180;58088;51.186;17.130;2023-06-14T11:44:11;100416.20;;;22.60
70533;BMP180;58088;51.186;17.130;2023-06-14T11:46:38;100422.60;;;22.42
70533;BMP180;58088;51.186;17.130;2023-06-14T11:49:06;100421.20;;;22.30
70533;BMP180;58088;51.186;17.130;2023-06-14T11:51:34;100418.20;;;22.20
70533;BMP180;58088;51.186;17.130;2023-06-14T11:54:02;100418.60;;;22.10
70533;BMP180;58088;51.186;17.130;2023-06-14T11:56:32;100423.00;;;21.90
70533;BMP180;58088;51.186;17.130;2023-06-14T11:58:59;100430.20;;;21.60
70533;BMP180;58088;51.186;17.130;2023-06-14T12:01:26;100420.80;;;21.50
70533;BMP180;58088;51.186;17.130;2023-06-14T12:03:54;100422.40;;;21.30
70533;BMP180;58088;51.186;17.130;2023-06-14T12:06:29;100429.20;;;21.12
70533;BMP180;58088;51.186;17.130;2023-06-14T12:08:58;100421.40;;;21.00
70533;BMP180;58088;51.186;17.130;2023-06-14T12:11:32;100420.00;;;20.92
70533;BMP180;58088;51.186;17.130;2023-06-14T12:13:59;100418.20;;;20.94
70533;BMP180;58088;51.186;17.130;2023-06-14T12:16:32;100413.80;;;21.00
70533;BMP180;58088;51.186;17.130;2023-06-14T12:19:16;100406.80;;;21.00
70533;BMP180;58088;51.186;17.130;2023-06-14T12:21:46;100412.00;;;21.00
70533;BMP180;58088;51.186;17.130;2023-06-14T12:24:16;100410.00;;;21.00
70533;BMP180;58088;51.186;17.130;2023-06-14T12:26:43;100410.00;;;21.00
70533;BMP180;58088;51.186;17.130;2023-06-14T12:29:09;100408.80;;;21.00
70533;BMP180;58088;51.186;17.130;2023-06-14T12:31:36;100410.60;;;21.00
70533;BMP180;58088;51.186;17.130;2023-06-14T12:34:03;100404.80;;;21.06
70533;BMP180;58088;51.186;17.130;2023-06-14T12:36:29;100405.40;;;21.10
70533;BMP180;58088;51.186;17.130;2023-06-14T12:38:55;100409.40;;;21.14
70533;BMP180;58088;51.186;17.130;2023-06-14T12:41:21;100408.80;;;21.20
70533;BMP180;58088;51.186;17.130;2023-06-14T12:43:48;100406.00;;;21.20
70533;BMP180;58088;51.186;17.130;2023-06-14T12:46:14;100402.40;;;21.20
70533;BMP180;58088;51.186;17.130;2023-06-14T12:48:40;100408.20;;;21.20
70533;BMP180;58088;51.186;17.130;2023-06-14T12:51:07;100400.40;;;21.10
70533;BMP180;58088;51.186;17.130;2023-06-14T12:53:33;100396.20;;;21.00
70533;BMP180;58088;51.186;17.130;2023-06-14T12:55:59;100399.00;;;20.96
70533;BMP180;58088;51.186;17.130;2023-06-14T12:58:25;100395.40;;;20.90
70533;BMP180;58088;51.186;17.130;2023-06-14T13:00:51;100397.20;;;20.90
70533;BMP180;58088;51.186;17.130;2023-06-14T13:03:18;100397.40;;;20.90
70533;BMP180;58088;51.186;17.130;2023-06-14T13:05:44;100394.80;;;20.80
70533;BMP180;58088;51.186;17.130;2023-06-14T13:08:10;100389.80;;;20.80
70533;BMP180;58088;51.186;17.130;2023-06-14T13:10:37;100391.20;;;20.88
70533;BMP180;58088;51.186;17.130;2023-06-14T13:13:03;100386.60;;;20.90
70533;BMP180;58088;51.186;17.130;2023-06-14T13:15:30;100381.00;;;21.00
70533;BMP180;58088;51.186;17.130;2023-06-14T13:17:56;100377.40;;;21.02
70533;BMP180;58088;51.186;17.130;2023-06-14T13:20:22;100376.20;;;21.10
70533;BMP180;58088;51.186;17.130;2023-06-14T13:22:48;100382.00;;;21.20
70533;BMP180;58088;51.186;17.130;2023-06-14T13:25:15;100378.60;;;21.22
70533;BMP180;58088;51.186;17.130;2023-06-14T13:27:41;100376.60;;;21.32
70533;BMP180;58088;51.186;17.130;2023-06-14T13:30:08;100376.40;;;21.40
70533;BMP180;58088;51.186;17.130;2023-06-14T13:32:35;100370.60;;;21.50
70533;BMP180;58088;51.186;17.130;2023-06-14T13:35:02;100379.40;;;21.60
70533;BMP180;58088;51.186;17.130;2023-06-14T13:37:29;100383.20;;;21.70
70533;BMP180;58088;51.186;17.130;2023-06-14T13:39:56;100392.00;;;21.80
70533;BMP180;58088;51.186;17.130;2023-06-14T13:42:22;100399.40;;;21.70
70533;BMP180;58088;51.186;17.130;2023-06-14T13:44:49;100400.20;;;21.40
70533;BMP180;58088;51.186;17.130;2023-06-14T13:47:17;100391.40;;;21.30
70533;BMP180;58088;51.186;17.130;2023-06-14T13:49:43;100388.40;;;21.30
70533;BMP180;58088;51.186;17.130;2023-06-14T13:52:09;100387.20;;;21.30
70533;BMP180;58088;51.186;17.130;2023-06-14T13:54:35;100381.20;;;21.10
70533;BMP180;58088;51.186;17.130;2023-06-14T13:57:02;100382.40;;;20.90